createdAt,value
2023-05-03T00:02:28.760Z,100348.47
2023-05-03T00:06:33.737Z,100348.50
2023-05-03T00:10:36.769Z,100345.88
2023-05-03T00:14:39.768Z,100337.91
2023-05-03T00:18:42.779Z,100345.00
2023-05-03T00:22:47.286Z,100341.47
2023-05-03T00:26:50.428Z,100339.69
2023-05-03T00:30:53.769Z,100339.69
2023-05-03T00:34:57.846Z,100339.69
2023-05-03T00:39:02.277Z,100337.06
2023-05-03T00:43:05.282Z,100330.84
2023-05-03T00:47:08.550Z,100337.91
2023-05-03T00:51:15.522Z,100348.53
2023-05-03T00:55:20.176Z,100343.22
2023-05-03T00:59:23.420Z,100334.41
2023-05-03T01:03:26.791Z,100335.28
2023-05-03T01:07:40.072Z,100335.28
2023-05-03T01:11:54.580Z,100335.28
2023-05-03T01:16:05.827Z,100337.03
2023-05-03T01:20:15.166Z,100338.81
2023-05-03T01:24:23.211Z,100328.22
2023-05-03T01:28:27.805Z,100341.47
2023-05-03T01:32:42.083Z,100326.47
2023-05-03T01:36:46.214Z,100332.66
2023-05-03T01:40:52.492Z,100336.16
2023-05-03T01:44:58.001Z,100331.78
2023-05-03T01:49:01.008Z,100329.13
2023-05-03T01:53:05.686Z,100330.91
2023-05-03T01:57:08.689Z,100334.41
2023-05-03T02:01:13.368Z,100329.97
2023-05-03T02:05:16.494Z,100331.75
2023-05-03T02:09:20.237Z,100342.31
2023-05-03T02:13:23.229Z,100346.75
2023-05-03T02:17:27.754Z,100341.44
2023-05-03T02:21:31.593Z,100332.63
2023-05-03T02:25:34.653Z,100342.34
2023-05-03T02:29:37.817Z,100336.13
2023-05-03T02:33:43.443Z,100344.97
2023-05-03T02:37:47.259Z,100341.44
2023-05-03T02:41:50.907Z,100336.13
2023-05-03T02:45:54.083Z,100339.69
2023-05-03T02:49:58.878Z,100340.53
2023-05-03T02:54:02.418Z,100335.25
2023-05-03T02:58:05.597Z,100340.56
2023-05-03T03:02:08.687Z,100336.16
2023-05-03T03:06:15.146Z,100341.44
2023-05-03T03:10:19.095Z,100335.28
2023-05-03T03:14:22.747Z,100333.50
2023-05-03T03:18:25.872Z,100344.06
2023-05-03T03:22:30.439Z,100337.91
2023-05-03T03:26:33.555Z,100344.97
2023-05-03T03:30:37.294Z,100350.22
2023-05-03T03:34:51.888Z,100355.53
2023-05-03T03:38:56.944Z,100356.41
2023-05-03T03:43:01.825Z,100356.41
2023-05-03T03:47:05.168Z,100356.41
2023-05-03T03:51:09.774Z,100363.47
2023-05-03T03:55:20.815Z,100366.09
2023-05-03T03:59:26.338Z,100368.75
2023-05-03T04:03:30.435Z,100374.03
2023-05-03T04:07:34.532Z,100381.06
2023-05-03T04:11:41.383Z,100373.16
2023-05-03T04:15:45.241Z,100385.47
2023-05-03T04:19:49.366Z,100387.25
2023-05-03T04:23:52.672Z,100395.19
2023-05-03T04:27:58.268Z,100403.09
2023-05-03T04:32:04.073Z,100402.22
2023-05-03T04:36:08.143Z,100404.00
2023-05-03T04:40:13.389Z,100404.91
2023-05-03T04:44:23.489Z,100404.00
2023-05-03T04:48:27.143Z,100415.47
2023-05-03T04:52:30.290Z,100419.88
2023-05-03T04:56:35.697Z,100426.03
2023-05-03T05:00:49.071Z,100433.09
2023-05-03T05:04:58.585Z,100433.13
2023-05-03T05:09:02.102Z,100438.41
2023-05-03T05:13:05.680Z,100437.50
2023-05-03T05:17:11.062Z,100436.66
2023-05-03T05:21:14.568Z,100438.44
2023-05-03T05:25:18.472Z,100443.72
2023-05-03T05:29:22.820Z,100447.25
2023-05-03T05:33:27.499Z,100460.50
2023-05-03T05:37:30.895Z,100447.28
2023-05-03T05:41:37.440Z,100449.94
2023-05-03T05:45:40.932Z,100458.75
2023-05-03T05:49:45.454Z,100464.06
2023-05-03T05:53:49.152Z,100467.59
2023-05-03T05:57:53.858Z,100479.06
2023-05-03T06:02:00.879Z,100480.84
2023-05-03T06:06:07.053Z,100479.06
2023-05-03T06:10:10.900Z,100485.22
2023-05-03T06:14:17.129Z,100486.13
2023-05-03T06:18:20.803Z,100489.69
2023-05-03T06:22:25.396Z,100487.00
2023-05-03T06:26:29.302Z,100489.66
2023-05-03T06:30:33.115Z,100498.47
2023-05-03T06:34:49.487Z,100494.06
2023-05-03T06:38:54.223Z,100498.50
2023-05-03T06:42:57.183Z,100500.25
2023-05-03T06:47:20.393Z,100500.25
2023-05-03T06:51:27.423Z,100505.53
2023-05-03T06:55:33.117Z,100510.84
2023-05-03T06:59:36.167Z,100509.13
2023-05-03T07:03:41.613Z,100510.88
2023-05-03T07:07:45.103Z,100510.84
2023-05-03T07:11:51.924Z,100510.88
2023-05-03T07:15:55.107Z,100505.56
2023-05-03T07:19:58.242Z,100510.84
2023-05-03T07:24:01.535Z,100512.59
2023-05-03T07:28:06.328Z,100509.06
2023-05-03T07:32:09.960Z,100502.88
2023-05-03T07:36:13.233Z,100496.69
2023-05-03T07:40:16.542Z,100509.03
2023-05-03T07:44:21.029Z,100515.22
2023-05-03T07:48:24.089Z,100516.09
2023-05-03T07:52:27.243Z,100523.13
2023-05-03T07:56:30.291Z,100522.22
2023-05-03T08:00:34.757Z,100511.59
2023-05-03T08:04:38.069Z,100519.53
2023-05-03T08:08:42.436Z,100519.50
2023-05-03T08:12:45.677Z,100519.50
2023-05-03T08:16:50.278Z,100514.19
2023-05-03T08:20:53.303Z,100520.28
2023-05-03T08:24:56.579Z,100525.56
2023-05-03T08:28:59.888Z,100521.09
2023-05-03T08:33:04.721Z,100521.06
2023-05-03T08:37:08.040Z,100519.25
2023-05-03T08:41:23.764Z,100521.88
2023-05-03T08:45:26.822Z,100517.31
2023-05-03T08:49:32.731Z,100508.41
2023-05-03T08:53:35.744Z,100522.47
2023-05-03T08:57:39.121Z,100522.28
2023-05-03T09:01:43.335Z,100513.34
2023-05-03T09:05:47.801Z,100522.19
2023-05-03T09:09:51.593Z,100526.47
2023-05-03T09:13:55.213Z,100523.63
2023-05-03T09:18:17.299Z,100512.69
2023-05-03T09:22:23.566Z,100505.38
2023-05-03T09:26:31.510Z,100507.13
2023-05-03T09:30:34.648Z,100509.53
2023-05-03T09:34:38.262Z,100508.81
2023-05-03T09:38:42.866Z,100502.66
2023-05-03T09:43:06.342Z,100507.69
2023-05-03T09:47:10.166Z,100499.44
2023-05-03T09:51:13.785Z,100497.47
2023-05-03T09:55:19.544Z,100489.44
2023-05-03T09:59:22.853Z,100478.50
2023-05-03T10:03:33.679Z,100475.56
2023-05-03T10:07:36.764Z,100468.31
2023-05-03T10:11:44.703Z,100471.75
2023-05-03T10:15:48.631Z,100465.50
2023-05-03T10:19:53.902Z,100459.16
2023-05-03T10:24:12.634Z,100460.75
2023-05-03T10:28:17.065Z,100462.19
2023-05-03T10:32:33.966Z,100448.63
2023-05-03T10:36:48.817Z,100458.63
2023-05-03T10:40:54.971Z,100460.25
2023-05-03T10:45:03.787Z,100447.78
2023-05-03T10:49:18.428Z,100459.16
2023-05-03T10:53:39.360Z,100462.47
2023-05-03T10:57:44.232Z,100456.03
2023-05-03T11:01:51.340Z,100452.28
2023-05-03T11:05:54.858Z,100454.91
2023-05-03T11:09:57.893Z,100451.81
2023-05-03T11:14:02.075Z,100453.59
2023-05-03T11:18:08.053Z,100453.78
2023-05-03T11:22:12.506Z,100453.94
2023-05-03T11:26:16.186Z,100456.63
2023-05-03T11:30:19.193Z,100457.72
2023-05-03T11:34:23.840Z,100458.59
2023-05-03T11:38:27.083Z,100458.84
2023-05-03T11:42:30.237Z,100452.75
2023-05-03T11:46:36.635Z,100447.63
2023-05-03T11:50:51.648Z,100455.91
2023-05-03T11:54:55.595Z,100455.22
2023-05-03T11:59:00.794Z,100451.88
2023-05-03T12:03:03.810Z,100449.22
2023-05-03T12:07:08.904Z,100448.16
2023-05-03T12:11:14.008Z,100443.28
2023-05-03T12:15:30.018Z,100449.25
2023-05-03T12:19:34.604Z,100455.53
2023-05-03T12:23:44.111Z,100444.03
2023-05-03T12:27:59.974Z,100442.41
2023-05-03T12:32:12.430Z,100433.41
2023-05-03T12:36:16.672Z,100438.59
2023-05-03T12:40:33.553Z,100438.53
2023-05-03T12:44:42.367Z,100433.31
2023-05-03T12:48:46.835Z,100438.56
2023-05-03T12:52:52.629Z,100438.69
2023-05-03T13:01:37.986Z,100430.91
2023-05-03T13:05:35.420Z,100430.22
2023-05-03T13:14:03.788Z,100426.91
2023-05-03T13:18:07.771Z,100426.84
2023-05-03T13:22:11.431Z,100423.31
2023-05-03T13:26:14.445Z,100414.47
2023-05-03T13:30:19.045Z,100419.97
2023-05-03T13:34:22.044Z,100417.38
2023-05-03T13:38:25.070Z,100410.44
2023-05-03T13:42:29.255Z,100411.50
2023-05-03T13:46:36.863Z,100414.38
2023-05-03T13:50:40.309Z,100415.31
2023-05-03T13:54:44.022Z,100417.13
2023-05-03T13:58:47.027Z,100414.53
2023-05-03T14:02:52.633Z,100405.69
2023-05-03T14:06:55.695Z,100404.81
2023-05-03T14:10:58.959Z,100404.81
2023-05-03T14:15:04.048Z,100403.94
2023-05-03T14:19:10.622Z,100403.03
2023-05-03T14:23:14.190Z,100405.69
2023-05-03T14:27:21.680Z,100408.34
2023-05-03T14:31:24.690Z,100399.34
2023-05-03T14:35:29.372Z,100406.41
2023-05-03T14:39:32.336Z,100402.78
2023-05-03T14:43:35.464Z,100408.94
2023-05-03T14:47:38.853Z,100398.25
2023-05-03T14:51:44.429Z,100400.97
2023-05-03T14:55:48.094Z,100412.56
2023-05-03T14:59:51.171Z,100414.31
2023-05-03T15:03:54.143Z,100416.03
2023-05-03T15:07:58.927Z,100417.75
2023-05-03T15:12:03.876Z,100406.25
2023-05-03T15:16:07.225Z,100407.19
2023-05-03T15:20:13.832Z,100414.31
2023-05-03T15:24:19.238Z,100414.31
2023-05-03T15:28:22.271Z,100421.44
2023-05-03T15:32:25.445Z,100425.91
2023-05-03T15:36:28.725Z,100424.13
2023-05-03T15:40:33.389Z,100424.13
2023-05-03T15:44:36.566Z,100423.25
2023-05-03T15:48:41.222Z,100427.72
2023-05-03T15:52:46.293Z,100432.22
2023-05-03T15:56:53.779Z,100431.34
2023-05-03T16:00:56.948Z,100431.31
2023-05-03T16:05:00.069Z,100433.97
2023-05-03T16:09:03.073Z,100435.91
2023-05-03T16:13:08.769Z,100432.44
2023-05-03T16:17:11.820Z,100429.84
2023-05-03T16:21:16.969Z,100435.19
2023-05-03T16:25:19.981Z,100435.25
2023-05-03T16:29:24.529Z,100433.47
2023-05-03T16:33:27.572Z,100426.38
2023-05-03T16:37:31.830Z,100426.50
2023-05-03T16:41:36.819Z,100431.91
2023-05-03T16:45:41.265Z,100428.44
2023-05-03T16:49:44.404Z,100427.63
2023-05-03T16:53:47.608Z,100428.59
2023-05-03T16:57:50.881Z,100432.28
2023-05-03T17:01:55.389Z,100434.25
2023-05-03T17:06:01.012Z,100444.94
2023-05-03T17:10:06.606Z,100446.81
2023-05-03T17:14:10.008Z,100446.03
2023-05-03T17:18:14.488Z,100454.09
2023-05-03T17:22:17.532Z,100454.16
2023-05-03T17:26:21.492Z,100453.41
2023-05-03T17:30:24.754Z,100461.44
2023-05-03T17:34:29.634Z,100453.50
2023-05-03T17:38:33.481Z,100460.69
2023-05-03T17:42:36.702Z,100468.75
2023-05-03T17:46:40.495Z,100467.94
2023-05-03T17:50:46.275Z,100476.03
2023-05-03T17:54:51.103Z,100472.56
2023-05-03T17:58:54.365Z,100474.34
2023-05-03T18:02:57.556Z,100472.66
2023-05-03T18:07:02.040Z,100481.59
2023-05-03T18:11:05.079Z,100479.03
2023-05-03T18:15:10.054Z,100477.34
2023-05-03T18:19:13.930Z,100482.72
2023-05-03T18:23:18.441Z,100483.66
2023-05-03T18:27:22.174Z,100488.13
2023-05-03T18:31:25.308Z,100489.97
2023-05-03T18:35:29.044Z,100486.50
2023-05-03T18:39:34.652Z,100504.25
2023-05-03T18:43:38.958Z,100510.44
2023-05-03T18:47:42.395Z,100511.34
2023-05-03T18:51:46.071Z,100519.31
2023-05-03T18:55:52.161Z,100522.00
2023-05-03T19:00:01.220Z,100534.38
2023-05-03T19:04:05.437Z,100533.50
2023-05-03T19:08:08.603Z,100535.31
2023-05-03T19:12:13.669Z,100540.63
2023-05-03T19:16:16.787Z,100540.66
2023-05-03T19:20:19.952Z,100538.91
2023-05-03T19:24:22.903Z,100543.38
2023-05-03T19:28:28.090Z,100544.28
2023-05-03T19:32:32.040Z,100544.28
2023-05-03T19:36:35.340Z,100546.06
2023-05-03T19:40:38.886Z,100539.03
2023-05-03T19:44:43.359Z,100549.63
2023-05-03T19:48:46.310Z,100549.66
2023-05-03T19:52:53.837Z,100555.84
2023-05-03T19:56:56.907Z,100554.09
2023-05-03T20:01:01.771Z,100545.28
2023-05-03T20:05:05.235Z,100545.25
2023-05-03T20:09:09.248Z,100547.06
2023-05-03T20:13:12.316Z,100546.19
2023-05-03T20:17:17.064Z,100547.94
2023-05-03T20:21:20.015Z,100540.91
2023-05-03T20:25:23.201Z,100539.13
2023-05-03T20:29:26.314Z,100539.13
2023-05-03T20:33:30.717Z,100546.16
2023-05-03T20:37:34.123Z,100540.84
2023-05-03T20:41:37.969Z,100542.63
2023-05-03T20:45:40.969Z,100546.16
2023-05-03T20:49:45.428Z,100547.03
2023-05-03T20:53:48.565Z,100545.22
2023-05-03T20:57:51.848Z,100547.88
2023-05-03T21:01:54.973Z,100546.09
2023-05-03T21:05:59.787Z,100541.69
2023-05-03T21:10:03.207Z,100543.44
2023-05-03T21:14:06.582Z,100548.69
2023-05-03T21:18:09.596Z,100547.81
2023-05-03T21:22:14.126Z,100551.31
2023-05-03T21:26:17.151Z,100549.50
2023-05-03T21:30:20.515Z,100554.81
2023-05-03T21:34:23.496Z,100556.53
2023-05-03T21:38:28.254Z,100548.56
2023-05-03T21:42:31.231Z,100550.28
2023-05-03T21:46:34.300Z,100549.38
2023-05-03T21:50:39.276Z,100551.13
2023-05-03T21:54:44.202Z,100554.59
2023-05-03T21:58:47.607Z,100556.34
2023-05-03T22:02:50.907Z,100555.41
2023-05-03T22:06:53.988Z,100556.25
2023-05-03T22:10:58.463Z,100552.72
2023-05-03T22:15:01.453Z,100549.16
2023-05-03T22:19:04.509Z,100549.16
2023-05-03T22:23:07.712Z,100546.44
2023-05-03T22:27:12.180Z,100554.31
2023-05-03T22:31:15.217Z,100556.03
2023-05-03T22:35:18.393Z,100555.13
2023-05-03T22:39:21.365Z,100550.72
2023-05-03T22:43:25.760Z,100554.22
2023-05-03T22:47:28.748Z,100547.16
2023-05-03T22:51:32.581Z,100544.50
2023-05-03T22:55:36.079Z,100546.28
2023-05-03T22:59:40.578Z,100537.47
2023-05-03T23:03:44.148Z,100540.13
2023-05-03T23:07:47.388Z,100538.31
2023-05-03T23:11:50.472Z,100537.44
2023-05-03T23:15:55.388Z,100538.31
2023-05-03T23:19:58.518Z,100538.25
2023-05-03T23:24:01.633Z,100536.44
2023-05-03T23:28:04.728Z,100539.94
2023-05-03T23:32:09.568Z,100542.59
2023-05-03T23:36:13.487Z,100538.16
2023-05-03T23:40:16.751Z,100541.69
2023-05-03T23:44:19.762Z,100531.97
2023-05-03T23:48:24.277Z,100541.69
2023-05-03T23:52:27.250Z,100534.66
2023-05-03T23:56:30.456Z,100531.97
